sensor_id;sensor_type;location;lat;lon;timestamp;P1;durP1;ratioP1;P2;durP2;ratioP2
10162;SDS011;5123;52.556;13.384;2022-11-24T00:01:01;71.67;;;38.00;;
10162;SDS011;5123;52.556;13.384;2022-11-24T00:03:35;67.20;;;37.60;;
10162;SDS011;5123;52.556;13.384;2022-11-24T00:06:09;66.80;;;37.13;;
10162;SDS011;5123;52.556;13.384;2022-11-24T00:08:44;66.53;;;38.13;;
10162;SDS011;5123;52.556;13.384;2022-11-24T00:11:19;69.60;;;37.57;;
10162;SDS011;5123;52.556;13.384;2022-11-24T00:13:52;65.37;;;39.30;;
10162;SDS011;5123;52.556;13.384;2022-11-24T00:16:26;65.23;;;38.90;;
10162;SDS011;5123;52.556;13.384;2022-11-24T00:19:00;66.87;;;38.23;;
10162;SDS011;5123;52.556;13.384;2022-11-24T00:21:33;66.83;;;40.20;;
10162;SDS011;5123;52.556;13.384;2022-11-24T00:24:06;67.80;;;39.00;;
10162;SDS011;5123;52.556;13.384;2022-11-24T00:26:41;78.07;;;39.43;;
10162;SDS011;5123;52.556;13.384;2022-11-24T00:29:14;70.50;;;39.70;;
10162;SDS011;5123;52.556;13.384;2022-11-24T00:31:47;69.10;;;38.90;;
10162;SDS011;5123;52.556;13.384;2022-11-24T00:34:20;63.20;;;38.47;;
10162;SDS011;5123;52.556;13.384;2022-11-24T00:36:53;63.33;;;37.97;;
10162;SDS011;5123;52.556;13.384;2022-11-24T00:39:26;68.07;;;39.57;;
10162;SDS011;5123;52.556;13.384;2022-11-24T00:42:01;68.03;;;39.67;;
10162;SDS011;5123;52.556;13.384;2022-11-24T00:44:34;68.53;;;39.23;;
10162;SDS011;5123;52.556;13.384;2022-11-24T00:47:07;68.13;;;38.40;;
10162;SDS011;5123;52.556;13.384;2022-11-24T00:49:40;67.30;;;39.57;;
10162;SDS011;5123;52.556;13.384;2022-11-24T00:52:13;71.53;;;38.83;;
10162;SDS011;5123;52.556;13.384;2022-11-24T00:54:46;69.20;;;38.63;;
10162;SDS011;5123;52.556;13.384;2022-11-24T00:57:20;69.83;;;39.90;;
10162;SDS011;5123;52.556;13.384;2022-11-24T00:59:53;66.80;;;40.83;;
10162;SDS011;5123;52.556;13.384;2022-11-24T01:02:26;70.63;;;40.73;;
10162;SDS011;5123;52.556;13.384;2022-11-24T01:04:59;76.30;;;39.97;;
10162;SDS011;5123;52.556;13.384;2022-11-24T01:07:33;68.43;;;39.23;;
10162;SDS011;5123;52.556;13.384;2022-11-24T01:10:07;66.90;;;38.73;;
10162;SDS011;5123;52.556;13.384;2022-11-24T01:12:41;68.00;;;41.03;;
10162;SDS011;5123;52.556;13.384;2022-11-24T01:15:15;66.90;;;39.57;;
10162;SDS011;5123;52.556;13.384;2022-11-24T01:17:48;69.23;;;39.23;;
10162;SDS011;5123;52.556;13.384;2022-11-24T01:20:21;68.97;;;40.70;;
10162;SDS011;5123;52.556;13.384;2022-11-24T01:22:54;63.43;;;37.10;;
10162;SDS011;5123;52.556;13.384;2022-11-24T01:25:27;69.90;;;41.47;;
10162;SDS011;5123;52.556;13.384;2022-11-24T01:28:02;71.07;;;41.83;;
10162;SDS011;5123;52.556;13.384;2022-11-24T01:30:35;68.57;;;39.50;;
10162;SDS011;5123;52.556;13.384;2022-11-24T01:33:08;71.33;;;40.67;;
10162;SDS011;5123;52.556;13.384;2022-11-24T01:35:42;67.97;;;39.93;;
10162;SDS011;5123;52.556;13.384;2022-11-24T01:38:16;70.17;;;40.50;;
10162;SDS011;5123;52.556;13.384;2022-11-24T01:40:48;73.67;;;39.60;;
10162;SDS011;5123;52.556;13.384;2022-11-24T01:43:23;70.03;;;39.20;;
10162;SDS011;5123;52.556;13.384;2022-11-24T01:45:56;62.23;;;36.57;;
10162;SDS011;5123;52.556;13.384;2022-11-24T01:48:31;57.30;;;34.77;;
10162;SDS011;5123;52.556;13.384;2022-11-24T01:51:07;64.60;;;36.97;;
10162;SDS011;5123;52.556;13.384;2022-11-24T01:53:43;66.00;;;39.40;;
10162;SDS011;5123;52.556;13.384;2022-11-24T01:56:16;58.67;;;36.20;;
10162;SDS011;5123;52.556;13.384;2022-11-24T01:58:51;65.10;;;37.97;;
10162;SDS011;5123;52.556;13.384;2022-11-24T02:01:26;64.10;;;35.83;;
10162;SDS011;5123;52.556;13.384;2022-11-24T02:04:02;62.97;;;36.97;;
10162;SDS011;5123;52.556;13.384;2022-11-24T02:06:36;57.77;;;34.67;;
10162;SDS011;5123;52.556;13.384;2022-11-24T02:09:11;64.23;;;35.53;;
10162;SDS011;5123;52.556;13.384;2022-11-24T02:11:45;69.93;;;37.07;;
10162;SDS011;5123;52.556;13.384;2022-11-24T02:14:20;63.37;;;36.63;;
10162;SDS011;5123;52.556;13.384;2022-11-24T02:16:54;63.10;;;37.27;;
10162;SDS011;5123;52.556;13.384;2022-11-24T02:19:35;65.57;;;37.23;;
10162;SDS011;5123;52.556;13.384;2022-11-24T02:22:11;68.23;;;38.73;;
10162;SDS011;5123;52.556;13.384;2022-11-24T02:24:48;69.43;;;37.03;;
10162;SDS011;5123;52.556;13.384;2022-11-24T02:27:23;60.47;;;36.23;;
10162;SDS011;5123;52.556;13.384;2022-11-24T02:29:57;62.83;;;37.63;;
10162;SDS011;5123;52.556;13.384;2022-11-24T02:32:30;62.43;;;35.40;;
10162;SDS011;5123;52.556;13.384;2022-11-24T02:35:05;56.47;;;34.10;;
10162;SDS011;5123;52.556;13.384;2022-11-24T02:37:39;59.30;;;34.80;;
10162;SDS011;5123;52.556;13.384;2022-11-24T02:40:13;60.93;;;34.53;;
10162;SDS011;5123;52.556;13.384;2022-11-24T02:42:48;58.47;;;33.50;;
10162;SDS011;5123;52.556;13.384;2022-11-24T02:45:20;63.33;;;35.93;;
10162;SDS011;5123;52.556;13.384;2022-11-24T02:47:54;53.07;;;33.93;;
10162;SDS011;5123;52.556;13.384;2022-11-24T02:50:27;59.60;;;35.23;;
10162;SDS011;5123;52.556;13.384;2022-11-24T02:53:00;59.93;;;33.63;;
10162;SDS011;5123;52.556;13.384;2022-11-24T02:55:33;59.37;;;32.67;;
10162;SDS011;5123;52.556;13.384;2022-11-24T02:58:07;61.90;;;34.63;;
10162;SDS011;5123;52.556;13.384;2022-11-24T03:00:40;59.07;;;32.97;;
10162;SDS011;5123;52.556;13.384;2022-11-24T03:03:13;54.40;;;32.73;;
10162;SDS011;5123;52.556;13.384;2022-11-24T03:05:46;57.23;;;33.50;;
10162;SDS011;5123;52.556;13.384;2022-11-24T03:08:19;65.03;;;34.87;;
10162;SDS011;5123;52.556;13.384;2022-11-24T03:10:52;54.73;;;33.53;;
10162;SDS011;5123;52.556;13.384;2022-11-24T03:13:27;57.13;;;33.93;;
10162;SDS011;5123;52.556;13.384;2022-11-24T03:16:00;58.70;;;33.23;;
10162;SDS011;5123;52.556;13.384;2022-11-24T03:18:35;60.47;;;34.17;;
10162;SDS011;5123;52.556;13.384;2022-11-24T03:21:08;50.27;;;31.33;;
10162;SDS011;5123;52.556;13.384;2022-11-24T03:23:41;62.90;;;33.50;;
10162;SDS011;5123;52.556;13.384;2022-11-24T03:26:15;58.87;;;33.53;;
10162;SDS011;5123;52.556;13.384;2022-11-24T03:28:55;57.43;;;32.93;;
10162;SDS011;5123;52.556;13.384;2022-11-24T03:31:28;59.90;;;34.57;;
10162;SDS011;5123;52.556;13.384;2022-11-24T03:34:01;62.33;;;35.87;;
10162;SDS011;5123;52.556;13.384;2022-11-24T03:36:34;54.67;;;32.87;;
10162;SDS011;5123;52.556;13.384;2022-11-24T03:39:07;56.60;;;33.37;;
10162;SDS011;5123;52.556;13.384;2022-11-24T03:41:40;54.67;;;32.50;;
10162;SDS011;5123;52.556;13.384;2022-11-24T03:44:15;58.00;;;34.03;;
10162;SDS011;5123;52.556;13.384;2022-11-24T03:46:47;55.63;;;33.13;;
10162;SDS011;5123;52.556;13.384;2022-11-24T03:49:22;63.30;;;33.20;;
10162;SDS011;5123;52.556;13.384;2022-11-24T03:51:55;57.63;;;34.03;;
10162;SDS011;5123;52.556;13.384;2022-11-24T03:54:28;58.27;;;34.10;;
10162;SDS011;5123;52.556;13.384;2022-11-24T03:57:01;63.00;;;33.73;;
10162;SDS011;5123;52.556;13.384;2022-11-24T03:59:37;55.57;;;33.67;;
10162;SDS011;5123;52.556;13.384;2022-11-24T04:02:11;58.73;;;31.03;;
10162;SDS011;5123;52.556;13.384;2022-11-24T04:04:44;57.37;;;33.03;;
10162;SDS011;5123;52.556;13.384;2022-11-24T04:07:21;63.23;;;32.37;;
10162;SDS011;5123;52.556;13.384;2022-11-24T04:09:54;60.13;;;33.13;;
10162;SDS011;5123;52.556;13.384;2022-11-24T04:12:27;54.03;;;31.63;;
10162;SDS011;5123;52.556;13.384;2022-11-24T04:15:20;58.03;;;33.10;;
10162;SDS011;5123;52.556;13.384;2022-11-24T04:17:53;58.27;;;31.90;;
10162;SDS011;5123;52.556;13.384;2022-11-24T04:20:26;53.60;;;31.43;;
10162;SDS011;5123;52.556;13.384;2022-11-24T04:22:59;54.27;;;31.03;;
10162;SDS011;5123;52.556;13.384;2022-11-24T04:25:33;56.33;;;31.17;;
10162;SDS011;5123;52.556;13.384;2022-11-24T04:28:06;56.30;;;30.70;;
10162;SDS011;5123;52.556;13.384;2022-11-24T04:30:40;54.87;;;31.20;;
10162;SDS011;5123;52.556;13.384;2022-11-24T04:33:15;50.93;;;30.87;;
10162;SDS011;5123;52.556;13.384;2022-11-24T04:35:51;54.77;;;31.80;;
10162;SDS011;5123;52.556;13.384;2022-11-24T04:38:24;60.90;;;31.00;;
10162;SDS011;5123;52.556;13.384;2022-11-24T04:41:17;54.70;;;31.80;;
10162;SDS011;5123;52.556;13.384;2022-11-24T04:43:53;53.63;;;30.07;;
10162;SDS011;5123;52.556;13.384;2022-11-24T04:46:27;55.77;;;31.27;;
10162;SDS011;5123;52.556;13.384;2022-11-24T04:49:00;54.93;;;30.13;;
10162;SDS011;5123;52.556;13.384;2022-11-24T04:51:33;51.37;;;28.20;;
10162;SDS011;5123;52.556;13.384;2022-11-24T04:54:06;50.87;;;27.87;;
10162;SDS011;5123;52.556;13.384;2022-11-24T04:56:41;49.40;;;29.17;;
10162;SDS011;5123;52.556;13.384;2022-11-24T04:59:18;52.07;;;29.00;;
10162;SDS011;5123;52.556;13.384;2022-11-24T05:01:52;52.77;;;29.77;;
10162;SDS011;5123;52.556;13.384;2022-11-24T05:04:25;52.30;;;29.27;;
10162;SDS011;5123;52.556;13.384;2022-11-24T05:06:58;55.53;;;29.80;;
10162;SDS011;5123;52.556;13.384;2022-11-24T05:09:31;56.93;;;30.90;;
10162;SDS011;5123;52.556;13.384;2022-11-24T05:12:24;62.43;;;31.47;;
10162;SDS011;5123;52.556;13.384;2022-11-24T05:15:02;58.00;;;30.93;;
10162;SDS011;5123;52.556;13.384;2022-11-24T05:17:37;56.23;;;30.13;;
10162;SDS011;5123;52.556;13.384;2022-11-24T05:20:10;64.03;;;30.67;;
10162;SDS011;5123;52.556;13.384;2022-11-24T05:22:43;53.63;;;30.00;;
10162;SDS011;5123;52.556;13.384;2022-11-24T05:25:16;55.67;;;30.70;;
10162;SDS011;5123;52.556;13.384;2022-11-24T05:27:49;55.23;;;29.37;;
10162;SDS011;5123;52.556;13.384;2022-11-24T05:30:22;56.33;;;31.20;;
10162;SDS011;5123;52.556;13.384;2022-11-24T05:32:56;56.23;;;31.77;;
10162;SDS011;5123;52.556;13.384;2022-11-24T05:35:29;52.93;;;31.40;;
10162;SDS011;5123;52.556;13.384;2022-11-24T05:38:03;50.57;;;28.27;;
10162;SDS011;5123;52.556;13.384;2022-11-24T05:40:37;52.93;;;27.80;;
10162;SDS011;5123;52.556;13.384;2022-11-24T05:43:16;56.07;;;28.97;;
10162;SDS011;5123;52.556;13.384;2022-11-24T05:45:49;53.73;;;29.77;;
10162;SDS011;5123;52.556;13.384;2022-11-24T05:48:23;52.07;;;29.33;;
10162;SDS011;5123;52.556;13.384;2022-11-24T05:50:56;51.53;;;27.87;;
10162;SDS011;5123;52.556;13.384;2022-11-24T05:53:29;49.47;;;30.33;;
10162;SDS011;5123;52.556;13.384;2022-11-24T05:56:02;54.43;;;30.87;;
10162;SDS011;5123;52.556;13.384;2022-11-24T05:58:35;61.13;;;30.50;;
10162;SDS011;5123;52.556;13.384;2022-11-24T06:01:10;55.83;;;30.63;;
10162;SDS011;5123;52.556;13.384;2022-11-24T06:03:46;56.70;;;29.47;;
10162;SDS011;5123;52.556;13.384;2022-11-24T06:06:19;58.30;;;29.20;;
10162;SDS011;5123;52.556;13.384;2022-11-24T06:08:52;52.53;;;28.20;;
10162;SDS011;5123;52.556;13.384;2022-11-24T06:11:24;50.20;;;27.57;;
10162;SDS011;5123;52.556;13.384;2022-11-24T06:13:57;54.10;;;27.40;;
10162;SDS011;5123;52.556;13.384;2022-11-24T06:16:31;50.03;;;28.23;;
10162;SDS011;5123;52.556;13.384;2022-11-24T06:19:09;50.67;;;27.93;;
10162;SDS011;5123;52.556;13.384;2022-11-24T06:21:55;55.47;;;28.67;;
10162;SDS011;5123;52.556;13.384;2022-11-24T06:24:29;50.90;;;29.00;;
10162;SDS011;5123;52.556;13.384;2022-11-24T06:27:02;48.03;;;26.63;;
10162;SDS011;5123;52.556;13.384;2022-11-24T06:29:35;48.97;;;28.20;;
10162;SDS011;5123;52.556;13.384;2022-11-24T06:32:09;48.23;;;27.90;;
10162;SDS011;5123;52.556;13.384;2022-11-24T06:34:46;50.20;;;26.80;;
10162;SDS011;5123;52.556;13.384;2022-11-24T06:37:22;47.70;;;27.23;;
10162;SDS011;5123;52.556;13.384;2022-11-24T06:39:55;51.97;;;28.13;;
10162;SDS011;5123;52.556;13.384;2022-11-24T06:42:35;48.93;;;25.83;;
10162;SDS011;5123;52.556;13.384;2022-11-24T06:45:08;45.20;;;25.80;;
10162;SDS011;5123;52.556;13.384;2022-11-24T06:47:41;45.13;;;26.47;;
10162;SDS011;5123;52.556;13.384;2022-11-24T06:50:15;47.73;;;27.03;;
10162;SDS011;5123;52.556;13.384;2022-11-24T06:52:48;49.43;;;26.20;;
10162;SDS011;5123;52.556;13.384;2022-11-24T06:55:20;43.70;;;27.27;;
10162;SDS011;5123;52.556;13.384;2022-11-24T06:57:53;45.23;;;25.90;;
10162;SDS011;5123;52.556;13.384;2022-11-24T07:00:26;49.50;;;26.57;;
10162;SDS011;5123;52.556;13.384;2022-11-24T07:03:02;45.73;;;25.13;;
10162;SDS011;5123;52.556;13.384;2022-11-24T07:05:40;43.30;;;25.03;;
10162;SDS011;5123;52.556;13.384;2022-11-24T07:08:13;47.07;;;27.13;;
10162;SDS011;5123;52.556;13.384;2022-11-24T07:10:48;49.07;;;26.30;;
10162;SDS011;5123;52.556;13.384;2022-11-24T07:13:22;47.43;;;26.03;;
10162;SDS011;5123;52.556;13.384;2022-11-24T07:15:55;47.03;;;27.13;;
10162;SDS011;5123;52.556;13.384;2022-11-24T07:18:28;41.93;;;24.47;;
10162;SDS011;5123;52.556;13.384;2022-11-24T07:21:03;42.67;;;26.10;;
10162;SDS011;5123;52.556;13.384;2022-11-24T07:23:36;44.30;;;24.97;;
10162;SDS011;5123;52.556;13.384;2022-11-24T07:26:09;46.87;;;26.47;;
10162;SDS011;5123;52.556;13.384;2022-11-24T07:28:42;48.83;;;27.70;;
10162;SDS011;5123;52.556;13.384;2022-11-24T07:31:16;46.50;;;26.93;;
10162;SDS011;5123;52.556;13.384;2022-11-24T07:33:50;49.43;;;25.30;;
10162;SDS011;5123;52.556;13.384;2022-11-24T07:36:25;47.47;;;26.90;;
10162;SDS011;5123;52.556;13.384;2022-11-24T07:38:57;46.53;;;25.97;;
10162;SDS011;5123;52.556;13.384;2022-11-24T07:41:30;46.13;;;26.60;;
10162;SDS011;5123;52.556;13.384;2022-11-24T07:44:03;47.93;;;25.03;;
10162;SDS011;5123;52.556;13.384;2022-11-24T07:46:36;44.73;;;26.77;;
10162;SDS011;5123;52.556;13.384;2022-11-24T07:49:09;51.17;;;25.97;;
10162;SDS011;5123;52.556;13.384;2022-11-24T07:51:43;45.77;;;25.97;;
10162;SDS011;5123;52.556;13.384;2022-11-24T07:54:16;51.70;;;27.57;;
10162;SDS011;5123;52.556;13.384;2022-11-24T07:56:49;47.17;;;25.80;;
10162;SDS011;5123;52.556;13.384;2022-11-24T07:59:21;44.93;;;26.47;;
10162;SDS011;5123;52.556;13.384;2022-11-24T08:01:54;47.67;;;26.27;;
10162;SDS011;5123;52.556;13.384;2022-11-24T08:04:27;47.43;;;26.57;;
10162;SDS011;5123;52.556;13.384;2022-11-24T08:07:02;49.07;;;27.63;;
10162;SDS011;5123;52.556;13.384;2022-11-24T08:09:35;46.87;;;26.30;;
10162;SDS011;5123;52.556;13.384;2022-11-24T08:12:08;47.00;;;25.93;;
10162;SDS011;5123;52.556;13.384;2022-11-24T08:14:41;48.47;;;27.23;;
10162;SDS011;5123;52.556;13.384;2022-11-24T08:17:13;44.80;;;26.53;;
10162;SDS011;5123;52.556;13.384;2022-11-24T08:19:46;47.83;;;27.40;;
10162;SDS011;5123;52.556;13.384;2022-11-24T08:22:20;47.57;;;26.43;;
10162;SDS011;5123;52.556;13.384;2022-11-24T08:24:53;44.27;;;25.97;;
10162;SDS011;5123;52.556;13.384;2022-11-24T08:27:28;45.63;;;24.83;;
10162;SDS011;5123;52.556;13.384;2022-11-24T08:30:04;43.07;;;26.37;;
10162;SDS011;5123;52.556;13.384;2022-11-24T08:32:38;44.80;;;26.73;;
10162;SDS011;5123;52.556;13.384;2022-11-24T08:35:10;42.63;;;27.13;;
10162;SDS011;5123;52.556;13.384;2022-11-24T08:37:46;45.93;;;27.50;;
10162;SDS011;5123;52.556;13.384;2022-11-24T08:40:18;45.13;;;26.90;;
10162;SDS011;5123;52.556;13.384;2022-11-24T08:42:55;46.37;;;27.07;;
10162;SDS011;5123;52.556;13.384;2022-11-24T08:45:33;43.30;;;25.23;;
10162;SDS011;5123;52.556;13.384;2022-11-24T08:48:12;42.67;;;27.07;;
10162;SDS011;5123;52.556;13.384;2022-11-24T08:50:44;45.87;;;26.90;;
10162;SDS011;5123;52.556;13.384;2022-11-24T08:53:19;41.87;;;25.87;;
10162;SDS011;5123;52.556;13.384;2022-11-24T08:55:54;46.73;;;26.13;;
10162;SDS011;5123;52.556;13.384;2022-11-24T08:58:34;47.80;;;25.93;;
10162;SDS011;5123;52.556;13.384;2022-11-24T09:01:07;44.43;;;26.17;;
10162;SDS011;5123;52.556;13.384;2022-11-24T09:03:41;47.27;;;27.33;;
10162;SDS011;5123;52.556;13.384;2022-11-24T09:06:21;43.53;;;26.07;;
10162;SDS011;5123;52.556;13.384;2022-11-24T09:08:58;48.00;;;27.13;;
10162;SDS011;5123;52.556;13.384;2022-11-24T09:11:32;41.30;;;25.37;;
10162;SDS011;5123;52.556;13.384;2022-11-24T09:14:04;42.77;;;25.13;;
10162;SDS011;5123;52.556;13.384;2022-11-24T09:16:37;37.13;;;25.77;;
10162;SDS011;5123;52.556;13.384;2022-11-24T09:19:11;42.23;;;26.83;;
10162;SDS011;5123;52.556;13.384;2022-11-24T09:21:45;43.90;;;27.63;;
10162;SDS011;5123;52.556;13.384;2022-11-24T09:24:22;46.77;;;26.40;;
10162;SDS011;5123;52.556;13.384;2022-11-24T09:26:54;44.20;;;26.00;;
10162;SDS011;5123;52.556;13.384;2022-11-24T09:29:27;44.87;;;27.50;;
10162;SDS011;5123;52.556;13.384;2022-11-24T09:32:00;47.67;;;27.63;;
10162;SDS011;5123;52.556;13.384;2022-11-24T09:35:23;40.77;;;26.07;;
10162;SDS011;5123;52.556;13.384;2022-11-24T09:38:17;40.93;;;26.03;;
10162;SDS011;5123;52.556;13.384;2022-11-24T09:40:52;42.37;;;26.77;;
10162;SDS011;5123;52.556;13.384;2022-11-24T09:43:29;44.77;;;26.43;;
10162;SDS011;5123;52.556;13.384;2022-11-24T09:46:07;54.43;;;34.00;;
10162;SDS011;5123;52.556;13.384;2022-11-24T09:48:45;58.07;;;34.40;;
10162;SDS011;5123;52.556;13.384;2022-11-24T09:51:19;46.77;;;28.40;;
10162;SDS011;5123;52.556;13.384;2022-11-24T09:53:56;42.37;;;28.60;;
10162;SDS011;5123;52.556;13.384;2022-11-24T09:56:32;38.73;;;25.83;;
10162;SDS011;5123;52.556;13.384;2022-11-24T09:59:09;37.50;;;24.77;;
10162;SDS011;5123;52.556;13.384;2022-11-24T10:01:44;36.80;;;24.53;;
10162;SDS011;5123;52.556;13.384;2022-11-24T10:04:18;40.83;;;26.63;;
10162;SDS011;5123;52.556;13.384;2022-11-24T10:06:54;39.60;;;25.33;;
10162;SDS011;5123;52.556;13.384;2022-11-24T10:09:33;46.30;;;26.40;;
10162;SDS011;5123;52.556;13.384;2022-11-24T10:12:14;40.23;;;26.77;;
10162;SDS011;5123;52.556;13.384;2022-11-24T10:17:41;38.70;;;25.03;;
10162;SDS011;5123;52.556;13.384;2022-11-24T10:20:18;38.70;;;25.27;;
10162;SDS011;5123;52.556;13.384;2022-11-24T10:22:58;44.57;;;25.73;;
10162;SDS011;5123;52.556;13.384;2022-11-24T10:25:37;38.07;;;25.20;;
10162;SDS011;5123;52.556;13.384;2022-11-24T10:28:14;38.93;;;25.50;;
10162;SDS011;5123;52.556;13.384;2022-11-24T10:30:52;41.47;;;24.87;;
10162;SDS011;5123;52.556;13.384;2022-11-24T10:33:26;35.70;;;24.83;;
10162;SDS011;5123;52.556;13.384;2022-11-24T10:36:04;38.70;;;26.10;;
10162;SDS011;5123;52.556;13.384;2022-11-24T10:38:41;36.67;;;25.00;;
10162;SDS011;5123;52.556;13.384;2022-11-24T10:41:17;38.00;;;24.47;;
10162;SDS011;5123;52.556;13.384;2022-11-24T10:43:53;39.00;;;24.83;;
10162;SDS011;5123;52.556;13.384;2022-11-24T10:46:29;36.43;;;25.33;;
10162;SDS011;5123;52.556;13.384;2022-11-24T10:49:13;44.37;;;27.97;;
10162;SDS011;5123;52.556;13.384;2022-11-24T10:52:04;41.53;;;27.73;;
10162;SDS011;5123;52.556;13.384;2022-11-24T10:54:51;38.20;;;26.33;;
10162;SDS011;5123;52.556;13.384;2022-11-24T10:57:27;39.53;;;26.77;;
10162;SDS011;5123;52.556;13.384;2022-11-24T11:00:03;39.77;;;26.70;;
10162;SDS011;5123;52.556;13.384;2022-11-24T11:02:40;40.13;;;27.07;;
10162;SDS011;5123;52.556;13.384;2022-11-24T11:05:32;39.70;;;27.00;;
10162;SDS011;5123;52.556;13.384;2022-11-24T11:08:22;40.23;;;28.10;;
10162;SDS011;5123;52.556;13.384;2022-11-24T11:11:11;42.53;;;27.37;;
10162;SDS011;5123;52.556;13.384;2022-11-24T11:13:46;44.60;;;27.93;;
10162;SDS011;5123;52.556;13.384;2022-11-24T11:16:34;46.80;;;27.17;;
10162;SDS011;5123;52.556;13.384;2022-11-24T11:22:18;39.63;;;27.23;;
10162;SDS011;5123;52.556;13.384;2022-11-24T11:25:02;40.57;;;26.50;;
10162;SDS011;5123;52.556;13.384;2022-11-24T11:27:36;45.20;;;26.40;;
10162;SDS011;5123;52.556;13.384;2022-11-24T11:30:21;42.90;;;27.37;;
10162;SDS011;5123;52.556;13.384;2022-11-24T11:33:19;41.83;;;27.43;;
10162;SDS011;5123;52.556;13.384;2022-11-24T11:36:13;43.53;;;27.07;;
10162;SDS011;5123;52.556;13.384;2022-11-24T11:38:47;37.53;;;26.63;;
10162;SDS011;5123;52.556;13.384;2022-11-24T11:41:20;41.23;;;26.80;;
10162;SDS011;5123;52.556;13.384;2022-11-24T11:43:58;38.40;;;26.67;;
10162;SDS011;5123;52.556;13.384;2022-11-24T11:46:34;39.20;;;26.10;;
10162;SDS011;5123;52.556;13.384;2022-11-24T11:49:11;35.33;;;25.40;;
10162;SDS011;5123;52.556;13.384;2022-11-24T11:51:48;41.43;;;28.37;;
10162;SDS011;5123;52.556;13.384;2022-11-24T11:54:26;40.47;;;26.70;;
10162;SDS011;5123;52.556;13.384;2022-11-24T11:57:04;40.83;;;26.73;;
10162;SDS011;5123;52.556;13.384;2022-11-24T11:59:54;39.03;;;26.93;;
10162;SDS011;5123;52.556;13.384;2022-11-24T12:02:56;37.93;;;26.80;;
10162;SDS011;5123;52.556;13.384;2022-11-24T12:05:38;41.13;;;25.87;;
10162;SDS011;5123;52.556;13.384;2022-11-24T12:08:17;38.70;;;27.03;;
10162;SDS011;5123;52.556;13.384;2022-11-24T12:10:57;37.10;;;26.37;;
10162;SDS011;5123;52.556;13.384;2022-11-24T12:13:41;41.63;;;25.83;;
10162;SDS011;5123;52.556;13.384;2022-11-24T12:16:26;37.13;;;24.87;;
10162;SDS011;5123;52.556;13.384;2022-11-24T12:19:09;37.63;;;24.93;;
10162;SDS011;5123;52.556;13.384;2022-11-24T12:21:51;36.53;;;24.80;;
10162;SDS011;5123;52.556;13.384;2022-11-24T12:24:29;33.97;;;23.50;;
10162;SDS011;5123;52.556;13.384;2022-11-24T12:27:07;34.00;;;24.57;;
10162;SDS011;5123;52.556;13.384;2022-11-24T12:29:44;35.70;;;24.87;;
10162;SDS011;5123;52.556;13.384;2022-11-24T12:32:25;38.27;;;25.87;;
10162;SDS011;5123;52.556;13.384;2022-11-24T12:35:02;35.83;;;25.40;;
10162;SDS011;5123;52.556;13.384;2022-11-24T12:37:44;36.27;;;25.97;;
10162;SDS011;5123;52.556;13.384;2022-11-24T12:40:22;34.57;;;25.00;;
10162;SDS011;5123;52.556;13.384;2022-11-24T12:42:58;33.77;;;26.03;;
10162;SDS011;5123;52.556;13.384;2022-11-24T12:45:37;37.27;;;25.07;;
10162;SDS011;5123;52.556;13.384;2022-11-24T12:48:14;40.50;;;26.20;;
10162;SDS011;5123;52.556;13.384;2022-11-24T12:50:49;36.30;;;25.40;;
10162;SDS011;5123;52.556;13.384;2022-11-24T12:53:25;36.47;;;24.90;;
10162;SDS011;5123;52.556;13.384;2022-11-24T12:56:03;35.53;;;24.80;;
10162;SDS011;5123;52.556;13.384;2022-11-24T12:58:39;30.67;;;23.50;;
10162;SDS011;5123;52.556;13.384;2022-11-24T13:01:15;57.07;;;40.07;;
10162;SDS011;5123;52.556;13.384;2022-11-24T13:03:56;35.67;;;25.33;;
10162;SDS011;5123;52.556;13.384;2022-11-24T13:06:34;52.67;;;36.50;;
10162;SDS011;5123;52.556;13.384;2022-11-24T13:09:09;47.00;;;30.83;;
10162;SDS011;5123;52.556;13.384;2022-11-24T13:11:43;40.57;;;27.90;;
10162;SDS011;5123;52.556;13.384;2022-11-24T13:14:19;36.23;;;25.00;;
10162;SDS011;5123;52.556;13.384;2022-11-24T13:16:53;41.07;;;29.33;;
10162;SDS011;5123;52.556;13.384;2022-11-24T13:19:46;32.53;;;23.73;;
10162;SDS011;5123;52.556;13.384;2022-11-24T13:22:23;35.07;;;24.13;;
10162;SDS011;5123;52.556;13.384;2022-11-24T13:25:10;34.17;;;24.33;;
10162;SDS011;5123;52.556;13.384;2022-11-24T13:27:47;33.40;;;24.77;;
10162;SDS011;5123;52.556;13.384;2022-11-24T13:33:38;35.53;;;25.80;;
10162;SDS011;5123;52.556;13.384;2022-11-24T13:39:00;36.53;;;25.83;;
10162;SDS011;5123;52.556;13.384;2022-11-24T13:45:08;35.77;;;25.90;;
10162;SDS011;5123;52.556;13.384;2022-11-24T13:48:00;36.10;;;26.40;;
10162;SDS011;5123;52.556;13.384;2022-11-24T13:53:26;35.53;;;25.30;;
10162;SDS011;5123;52.556;13.384;2022-11-24T13:56:02;34.20;;;25.90;;
10162;SDS011;5123;52.556;13.384;2022-11-24T13:58:37;38.67;;;25.83;;
10162;SDS011;5123;52.556;13.384;2022-11-24T14:01:15;37.50;;;26.43;;
10162;SDS011;5123;52.556;13.384;2022-11-24T14:03:57;37.50;;;26.47;;
10162;SDS011;5123;52.556;13.384;2022-11-24T14:06:53;36.70;;;26.20;;
10162;SDS011;5123;52.556;13.384;2022-11-24T14:09:27;41.00;;;27.03;;
10162;SDS011;5123;52.556;13.384;2022-11-24T14:12:01;41.43;;;28.50;;
10162;SDS011;5123;52.556;13.384;2022-11-24T14:14:36;37.27;;;26.53;;
10162;SDS011;5123;52.556;13.384;2022-11-24T14:17:17;40.93;;;28.83;;
10162;SDS011;5123;52.556;13.384;2022-11-24T14:19:51;46.37;;;33.90;;
10162;SDS011;5123;52.556;13.384;2022-11-24T14:22:25;49.30;;;33.57;;
10162;SDS011;5123;52.556;13.384;2022-11-24T14:25:02;44.30;;;32.50;;
10162;SDS011;5123;52.556;13.384;2022-11-24T14:27:36;50.43;;;36.77;;
10162;SDS011;5123;52.556;13.384;2022-11-24T14:30:16;40.27;;;28.03;;
10162;SDS011;5123;52.556;13.384;2022-11-24T14:32:54;32.43;;;22.30;;
10162;SDS011;5123;52.556;13.384;2022-11-24T14:35:29;35.83;;;24.07;;
10162;SDS011;5123;52.556;13.384;2022-11-24T14:38:03;34.10;;;24.07;;
10162;SDS011;5123;52.556;13.384;2022-11-24T14:40:37;36.83;;;25.50;;
10162;SDS011;5123;52.556;13.384;2022-11-24T14:43:20;35.07;;;24.73;;
10162;SDS011;5123;52.556;13.384;2022-11-24T14:45:55;34.00;;;24.10;;
10162;SDS011;5123;52.556;13.384;2022-11-24T14:48:31;35.20;;;24.67;;
10162;SDS011;5123;52.556;13.384;2022-11-24T14:51:06;38.47;;;25.20;;
10162;SDS011;5123;52.556;13.384;2022-11-24T14:53:39;35.10;;;24.37;;
10162;SDS011;5123;52.556;13.384;2022-11-24T14:56:20;32.30;;;22.93;;
10162;SDS011;5123;52.556;13.384;2022-11-24T14:58:54;29.10;;;21.83;;
10162;SDS011;5123;52.556;13.384;2022-11-24T15:01:28;30.47;;;22.53;;
10162;SDS011;5123;52.556;13.384;2022-11-24T15:04:11;35.03;;;23.03;;
10162;SDS011;5123;52.556;13.384;2022-11-24T15:07:11;31.30;;;23.40;;
10162;SDS011;5123;52.556;13.384;2022-11-24T15:09:47;31.90;;;22.77;;
10162;SDS011;5123;52.556;13.384;2022-11-24T15:12:23;31.77;;;23.30;;
10162;SDS011;5123;52.556;13.384;2022-11-24T15:14:59;34.97;;;23.53;;
10162;SDS011;5123;52.556;13.384;2022-11-24T15:17:33;30.63;;;23.97;;
10162;SDS011;5123;52.556;13.384;2022-11-24T15:20:08;35.90;;;25.40;;
10162;SDS011;5123;52.556;13.384;2022-11-24T15:22:42;36.13;;;25.57;;
10162;SDS011;5123;52.556;13.384;2022-11-24T15:25:23;38.47;;;26.63;;
10162;SDS011;5123;52.556;13.384;2022-11-24T15:27:56;35.00;;;25.00;;
10162;SDS011;5123;52.556;13.384;2022-11-24T15:30:29;34.83;;;24.83;;